sensor_id;sensor_type;location;lat;lon;timestamp;P1;durP1;ratioP1;P2;durP2;ratioP2
18104;SDS011;9179;50.968;3.134;2023-10-19T00:00:02;1.15;;;1.05;;
18104;SDS011;9179;50.968;3.134;2023-10-19T00:02:45;1.33;;;1.02;;
18104;SDS011;9179;50.968;3.134;2023-10-19T00:05:16;1.80;;;1.67;;
18104;SDS011;9179;50.968;3.134;2023-10-19T00:07:45;1.45;;;0.82;;
18104;SDS011;9179;50.968;3.134;2023-10-19T00:10:13;1.27;;;0.90;;
18104;SDS011;9179;50.968;3.134;2023-10-19T00:12:42;3.80;;;0.95;;
18104;SDS011;9179;50.968;3.134;2023-10-19T00:15:17;2.22;;;1.40;;
18104;SDS011;9179;50.968;3.134;2023-10-19T00:17:48;2.17;;;1.08;;
18104;SDS011;9179;50.968;3.134;2023-10-19T00:20:18;0.98;;;0.90;;
18104;SDS011;9179;50.968;3.134;2023-10-19T00:23:00;2.17;;;0.93;;
18104;SDS011;9179;50.968;3.134;2023-10-19T00:25:32;1.50;;;1.02;;
18104;SDS011;9179;50.968;3.134;2023-10-19T00:28:00;2.63;;;0.82;;
18104;SDS011;9179;50.968;3.134;2023-10-19T00:30:29;1.55;;;1.00;;
18104;SDS011;9179;50.968;3.134;2023-10-19T00:32:58;3.92;;;1.33;;
18104;SDS011;9179;50.968;3.134;2023-10-19T00:35:28;1.33;;;1.23;;
18104;SDS011;9179;50.968;3.134;2023-10-19T00:38:01;5.78;;;3.05;;
18104;SDS011;9179;50.968;3.134;2023-10-19T00:40:43;1.27;;;0.90;;
18104;SDS011;9179;50.968;3.134;2023-10-19T00:43:25;4.22;;;1.40;;
18104;SDS011;9179;50.968;3.134;2023-10-19T00:45:54;1.55;;;0.80;;
18104;SDS011;9179;50.968;3.134;2023-10-19T00:48:21;0.98;;;0.65;;
18104;SDS011;9179;50.968;3.134;2023-10-19T00:50:51;1.17;;;0.95;;
18104;SDS011;9179;50.968;3.134;2023-10-19T00:53:31;1.35;;;1.15;;
18104;SDS011;9179;50.968;3.134;2023-10-19T00:56:01;1.40;;;1.23;;
18104;SDS011;9179;50.968;3.134;2023-10-19T00:58:31;2.30;;;1.17;;
18104;SDS011;9179;50.968;3.134;2023-10-19T01:01:01;6.28;;;1.13;;
18104;SDS011;9179;50.968;3.134;2023-10-19T01:03:30;1.35;;;1.15;;
18104;SDS011;9179;50.968;3.134;2023-10-19T01:06:02;2.22;;;1.02;;
18104;SDS011;9179;50.968;3.134;2023-10-19T01:08:34;2.13;;;1.00;;
18104;SDS011;9179;50.968;3.134;2023-10-19T01:11:08;1.85;;;1.10;;
18104;SDS011;9179;50.968;3.134;2023-10-19T01:13:37;2.42;;;1.10;;
18104;SDS011;9179;50.968;3.134;2023-10-19T01:16:11;1.52;;;0.95;;
18104;SDS011;9179;50.968;3.134;2023-10-19T01:18:45;1.58;;;0.93;;
18104;SDS011;9179;50.968;3.134;2023-10-19T01:21:12;1.73;;;1.23;;
18104;SDS011;9179;50.968;3.134;2023-10-19T01:23:45;1.35;;;1.25;;
18104;SDS011;9179;50.968;3.134;2023-10-19T01:26:13;1.70;;;0.80;;
18104;SDS011;9179;50.968;3.134;2023-10-19T01:28:43;3.83;;;1.35;;
18104;SDS011;9179;50.968;3.134;2023-10-19T01:31:14;3.83;;;2.20;;
18104;SDS011;9179;50.968;3.134;2023-10-19T01:33:47;1.50;;;1.38;;
18104;SDS011;9179;50.968;3.134;2023-10-19T01:36:15;2.58;;;1.10;;
18104;SDS011;9179;50.968;3.134;2023-10-19T01:38:51;2.45;;;1.17;;
18104;SDS011;9179;50.968;3.134;2023-10-19T01:41:20;1.42;;;1.33;;
18104;SDS011;9179;50.968;3.134;2023-10-19T01:43:48;2.47;;;1.13;;
18104;SDS011;9179;50.968;3.134;2023-10-19T01:46:18;1.63;;;0.82;;
18104;SDS011;9179;50.968;3.134;2023-10-19T01:48:50;2.70;;;1.70;;
18104;SDS011;9179;50.968;3.134;2023-10-19T01:51:20;4.68;;;1.50;;
18104;SDS011;9179;50.968;3.134;2023-10-19T01:53:48;1.38;;;1.08;;
18104;SDS011;9179;50.968;3.134;2023-10-19T01:56:17;2.30;;;0.98;;
18104;SDS011;9179;50.968;3.134;2023-10-19T01:58:44;2.55;;;1.17;;
18104;SDS011;9179;50.968;3.134;2023-10-19T02:01:13;1.88;;;1.10;;
18104;SDS011;9179;50.968;3.134;2023-10-19T02:03:45;2.22;;;1.30;;
18104;SDS011;9179;50.968;3.134;2023-10-19T02:06:14;2.75;;;1.20;;
18104;SDS011;9179;50.968;3.134;2023-10-19T02:08:45;4.30;;;1.45;;
18104;SDS011;9179;50.968;3.134;2023-10-19T02:11:14;1.88;;;1.25;;
18104;SDS011;9179;50.968;3.134;2023-10-19T02:13:44;2.25;;;1.20;;
18104;SDS011;9179;50.968;3.134;2023-10-19T02:16:12;1.52;;;1.40;;
18104;SDS011;9179;50.968;3.134;2023-10-19T02:18:41;3.92;;;1.40;;
18104;SDS011;9179;50.968;3.134;2023-10-19T02:21:07;1.92;;;1.05;;
18104;SDS011;9179;50.968;3.134;2023-10-19T02:23:37;6.80;;;1.67;;
18104;SDS011;9179;50.968;3.134;2023-10-19T02:26:03;1.60;;;1.05;;
18104;SDS011;9179;50.968;3.134;2023-10-19T02:28:30;2.75;;;1.40;;
18104;SDS011;9179;50.968;3.134;2023-10-19T02:30:58;4.85;;;1.50;;
18104;SDS011;9179;50.968;3.134;2023-10-19T02:33:36;2.80;;;1.52;;
18104;SDS011;9179;50.968;3.134;2023-10-19T02:36:03;3.30;;;1.25;;
18104;SDS011;9179;50.968;3.134;2023-10-19T02:38:38;4.00;;;1.27;;
18104;SDS011;9179;50.968;3.134;2023-10-19T02:41:09;3.47;;;1.35;;
18104;SDS011;9179;50.968;3.134;2023-10-19T02:43:36;2.08;;;1.25;;
18104;SDS011;9179;50.968;3.134;2023-10-19T02:46:04;3.35;;;1.50;;
18104;SDS011;9179;50.968;3.134;2023-10-19T02:48:31;2.05;;;1.23;;
18104;SDS011;9179;50.968;3.134;2023-10-19T02:50:57;1.58;;;1.30;;
18104;SDS011;9179;50.968;3.134;2023-10-19T02:53:33;1.75;;;1.30;;
18104;SDS011;9179;50.968;3.134;2023-10-19T02:55:59;5.38;;;1.10;;
18104;SDS011;9179;50.968;3.134;2023-10-19T02:58:37;2.35;;;1.30;;
18104;SDS011;9179;50.968;3.134;2023-10-19T03:01:12;2.50;;;1.23;;
18104;SDS011;9179;50.968;3.134;2023-10-19T03:03:42;3.10;;;1.15;;
18104;SDS011;9179;50.968;3.134;2023-10-19T03:06:08;3.67;;;1.40;;
18104;SDS011;9179;50.968;3.134;2023-10-19T03:08:36;3.35;;;1.75;;
18104;SDS011;9179;50.968;3.134;2023-10-19T03:11:02;1.55;;;1.20;;
18104;SDS011;9179;50.968;3.134;2023-10-19T03:13:30;3.08;;;1.35;;
18104;SDS011;9179;50.968;3.134;2023-10-19T03:15:57;1.98;;;1.60;;
18104;SDS011;9179;50.968;3.134;2023-10-19T03:18:26;4.15;;;1.50;;
18104;SDS011;9179;50.968;3.134;2023-10-19T03:20:53;3.25;;;1.35;;
18104;SDS011;9179;50.968;3.134;2023-10-19T03:23:20;3.50;;;1.50;;
18104;SDS011;9179;50.968;3.134;2023-10-19T03:25:46;2.20;;;1.30;;
18104;SDS011;9179;50.968;3.134;2023-10-19T03:28:37;3.72;;;1.73;;
18104;SDS011;9179;50.968;3.134;2023-10-19T03:31:05;3.90;;;1.45;;
18104;SDS011;9179;50.968;3.134;2023-10-19T03:33:34;3.03;;;1.38;;
18104;SDS011;9179;50.968;3.134;2023-10-19T03:36:05;3.40;;;1.45;;
18104;SDS011;9179;50.968;3.134;2023-10-19T03:38:38;2.60;;;1.42;;
18104;SDS011;9179;50.968;3.134;2023-10-19T03:41:05;2.97;;;1.40;;
18104;SDS011;9179;50.968;3.134;2023-10-19T03:43:34;3.55;;;1.33;;
18104;SDS011;9179;50.968;3.134;2023-10-19T03:46:02;3.08;;;1.50;;
18104;SDS011;9179;50.968;3.134;2023-10-19T03:48:40;3.45;;;1.50;;
18104;SDS011;9179;50.968;3.134;2023-10-19T03:51:07;4.00;;;1.60;;
18104;SDS011;9179;50.968;3.134;2023-10-19T03:53:37;4.65;;;1.30;;
18104;SDS011;9179;50.968;3.134;2023-10-19T03:56:08;2.80;;;1.67;;
18104;SDS011;9179;50.968;3.134;2023-10-19T03:58:36;6.15;;;1.83;;
18104;SDS011;9179;50.968;3.134;2023-10-19T04:01:04;2.42;;;1.83;;
18104;SDS011;9179;50.968;3.134;2023-10-19T04:03:32;2.83;;;1.92;;
18104;SDS011;9179;50.968;3.134;2023-10-19T04:06:03;4.57;;;1.48;;
18104;SDS011;9179;50.968;3.134;2023-10-19T04:08:30;4.28;;;1.40;;
18104;SDS011;9179;50.968;3.134;2023-10-19T04:11:02;3.58;;;1.77;;
18104;SDS011;9179;50.968;3.134;2023-10-19T04:13:36;3.58;;;1.90;;
18104;SDS011;9179;50.968;3.134;2023-10-19T04:16:04;2.45;;;1.83;;
18104;SDS011;9179;50.968;3.134;2023-10-19T04:18:33;3.05;;;1.20;;
18104;SDS011;9179;50.968;3.134;2023-10-19T04:21:04;6.47;;;2.20;;
18104;SDS011;9179;50.968;3.134;2023-10-19T04:23:31;4.68;;;1.48;;
18104;SDS011;9179;50.968;3.134;2023-10-19T04:26:01;3.25;;;1.90;;
18104;SDS011;9179;50.968;3.134;2023-10-19T04:28:35;3.55;;;2.00;;
18104;SDS011;9179;50.968;3.134;2023-10-19T04:31:09;2.42;;;1.55;;
18104;SDS011;9179;50.968;3.134;2023-10-19T04:33:39;2.47;;;1.75;;
18104;SDS011;9179;50.968;3.134;2023-10-19T04:36:12;1.80;;;1.70;;
18104;SDS011;9179;50.968;3.134;2023-10-19T04:38:44;6.20;;;1.92;;
18104;SDS011;9179;50.968;3.134;2023-10-19T04:41:12;5.50;;;1.83;;
18104;SDS011;9179;50.968;3.134;2023-10-19T04:43:40;4.13;;;2.10;;
18104;SDS011;9179;50.968;3.134;2023-10-19T04:46:14;3.92;;;2.20;;
18104;SDS011;9179;50.968;3.134;2023-10-19T04:48:43;2.92;;;1.70;;
18104;SDS011;9179;50.968;3.134;2023-10-19T04:51:12;5.32;;;1.98;;
18104;SDS011;9179;50.968;3.134;2023-10-19T04:53:39;4.35;;;2.00;;
18104;SDS011;9179;50.968;3.134;2023-10-19T04:56:07;3.70;;;1.73;;
18104;SDS011;9179;50.968;3.134;2023-10-19T04:58:35;3.17;;;1.73;;
18104;SDS011;9179;50.968;3.134;2023-10-19T05:01:02;3.13;;;1.88;;
18104;SDS011;9179;50.968;3.134;2023-10-19T05:03:29;4.30;;;2.05;;
18104;SDS011;9179;50.968;3.134;2023-10-19T05:05:56;4.07;;;2.65;;
18104;SDS011;9179;50.968;3.134;2023-10-19T05:08:24;1.73;;;1.50;;
18104;SDS011;9179;50.968;3.134;2023-10-19T05:10:53;5.15;;;1.55;;
18104;SDS011;9179;50.968;3.134;2023-10-19T05:13:21;3.85;;;1.92;;
18104;SDS011;9179;50.968;3.134;2023-10-19T05:15:48;6.40;;;2.30;;
18104;SDS011;9179;50.968;3.134;2023-10-19T05:18:15;5.50;;;2.22;;
18104;SDS011;9179;50.968;3.134;2023-10-19T05:20:42;5.13;;;2.03;;
18104;SDS011;9179;50.968;3.134;2023-10-19T05:23:08;7.45;;;2.50;;
18104;SDS011;9179;50.968;3.134;2023-10-19T05:25:38;4.18;;;2.20;;
18104;SDS011;9179;50.968;3.134;2023-10-19T05:28:05;7.65;;;3.40;;
18104;SDS011;9179;50.968;3.134;2023-10-19T05:30:33;5.13;;;2.88;;
18104;SDS011;9179;50.968;3.134;2023-10-19T05:33:00;4.18;;;2.22;;
18104;SDS011;9179;50.968;3.134;2023-10-19T05:35:28;2.63;;;1.77;;
18104;SDS011;9179;50.968;3.134;2023-10-19T05:37:55;5.00;;;2.20;;
18104;SDS011;9179;50.968;3.134;2023-10-19T05:40:23;3.92;;;1.65;;
18104;SDS011;9179;50.968;3.134;2023-10-19T05:42:56;6.03;;;2.53;;
18104;SDS011;9179;50.968;3.134;2023-10-19T05:45:25;6.07;;;2.13;;
18104;SDS011;9179;50.968;3.134;2023-10-19T05:47:53;6.18;;;2.65;;
18104;SDS011;9179;50.968;3.134;2023-10-19T05:50:21;7.43;;;2.90;;
18104;SDS011;9179;50.968;3.134;2023-10-19T05:52:48;3.42;;;2.92;;
18104;SDS011;9179;50.968;3.134;2023-10-19T05:55:17;5.93;;;3.10;;
18104;SDS011;9179;50.968;3.134;2023-10-19T05:57:46;10.32;;;4.30;;
18104;SDS011;9179;50.968;3.134;2023-10-19T06:00:15;6.40;;;4.47;;
18104;SDS011;9179;50.968;3.134;2023-10-19T06:02:45;8.10;;;3.85;;
18104;SDS011;9179;50.968;3.134;2023-10-19T06:05:14;7.45;;;3.55;;
18104;SDS011;9179;50.968;3.134;2023-10-19T06:07:42;6.60;;;3.70;;
18104;SDS011;9179;50.968;3.134;2023-10-19T06:10:11;4.32;;;2.70;;
18104;SDS011;9179;50.968;3.134;2023-10-19T06:12:42;5.53;;;3.08;;
18104;SDS011;9179;50.968;3.134;2023-10-19T06:15:10;6.50;;;2.70;;
18104;SDS011;9179;50.968;3.134;2023-10-19T06:17:39;6.43;;;2.65;;
18104;SDS011;9179;50.968;3.134;2023-10-19T06:20:07;5.95;;;3.53;;
18104;SDS011;9179;50.968;3.134;2023-10-19T06:22:45;9.20;;;2.88;;
18104;SDS011;9179;50.968;3.134;2023-10-19T06:25:15;7.20;;;2.70;;
18104;SDS011;9179;50.968;3.134;2023-10-19T06:27:43;7.80;;;3.05;;
18104;SDS011;9179;50.968;3.134;2023-10-19T06:30:10;7.00;;;3.72;;
18104;SDS011;9179;50.968;3.134;2023-10-19T06:32:43;8.55;;;2.90;;
18104;SDS011;9179;50.968;3.134;2023-10-19T06:35:14;5.13;;;2.42;;
18104;SDS011;9179;50.968;3.134;2023-10-19T06:37:41;14.23;;;3.65;;
18104;SDS011;9179;50.968;3.134;2023-10-19T06:40:09;4.30;;;3.20;;
18104;SDS011;9179;50.968;3.134;2023-10-19T06:42:37;7.65;;;2.83;;
18104;SDS011;9179;50.968;3.134;2023-10-19T06:45:05;6.65;;;3.22;;
18104;SDS011;9179;50.968;3.134;2023-10-19T06:47:33;6.78;;;3.35;;
18104;SDS011;9179;50.968;3.134;2023-10-19T06:50:04;5.53;;;2.95;;
18104;SDS011;9179;50.968;3.134;2023-10-19T06:52:35;3.65;;;2.53;;
18104;SDS011;9179;50.968;3.134;2023-10-19T06:55:02;3.72;;;3.30;;
18104;SDS011;9179;50.968;3.134;2023-10-19T06:57:30;4.18;;;2.28;;
18104;SDS011;9179;50.968;3.134;2023-10-19T06:59:57;7.80;;;2.80;;
18104;SDS011;9179;50.968;3.134;2023-10-19T07:02:24;4.30;;;2.90;;
18104;SDS011;9179;50.968;3.134;2023-10-19T07:04:51;5.55;;;2.78;;
18104;SDS011;9179;50.968;3.134;2023-10-19T07:07:20;6.90;;;2.85;;
18104;SDS011;9179;50.968;3.134;2023-10-19T07:09:46;9.65;;;3.45;;
18104;SDS011;9179;50.968;3.134;2023-10-19T07:12:13;4.95;;;2.40;;
18104;SDS011;9179;50.968;3.134;2023-10-19T07:14:43;5.85;;;2.55;;
18104;SDS011;9179;50.968;3.134;2023-10-19T07:17:10;7.85;;;3.67;;
18104;SDS011;9179;50.968;3.134;2023-10-19T07:19:37;7.35;;;2.60;;
18104;SDS011;9179;50.968;3.134;2023-10-19T07:22:08;7.20;;;2.85;;
18104;SDS011;9179;50.968;3.134;2023-10-19T07:24:37;8.10;;;3.03;;
18104;SDS011;9179;50.968;3.134;2023-10-19T07:27:04;5.53;;;2.83;;
18104;SDS011;9179;50.968;3.134;2023-10-19T07:29:33;10.05;;;3.22;;
18104;SDS011;9179;50.968;3.134;2023-10-19T07:32:01;5.50;;;3.25;;
18104;SDS011;9179;50.968;3.134;2023-10-19T07:34:31;7.00;;;3.40;;
18104;SDS011;9179;50.968;3.134;2023-10-19T07:36:58;6.50;;;3.08;;
18104;SDS011;9179;50.968;3.134;2023-10-19T07:39:26;6.00;;;3.90;;
18104;SDS011;9179;50.968;3.134;2023-10-19T07:41:56;5.20;;;2.88;;
18104;SDS011;9179;50.968;3.134;2023-10-19T07:44:23;4.57;;;2.83;;
18104;SDS011;9179;50.968;3.134;2023-10-19T07:46:50;6.80;;;2.85;;
18104;SDS011;9179;50.968;3.134;2023-10-19T07:49:18;5.78;;;3.97;;
18104;SDS011;9179;50.968;3.134;2023-10-19T07:51:47;5.63;;;3.67;;
18104;SDS011;9179;50.968;3.134;2023-10-19T07:54:14;4.45;;;2.85;;
18104;SDS011;9179;50.968;3.134;2023-10-19T07:56:41;5.90;;;2.80;;
18104;SDS011;9179;50.968;3.134;2023-10-19T07:59:10;8.45;;;3.00;;
18104;SDS011;9179;50.968;3.134;2023-10-19T08:01:38;6.97;;;3.38;;
18104;SDS011;9179;50.968;3.134;2023-10-19T08:04:05;9.38;;;3.00;;
18104;SDS011;9179;50.968;3.134;2023-10-19T08:06:32;9.63;;;3.78;;
18104;SDS011;9179;50.968;3.134;2023-10-19T08:08:59;6.68;;;3.33;;
18104;SDS011;9179;50.968;3.134;2023-10-19T08:11:25;4.95;;;3.13;;
18104;SDS011;9179;50.968;3.134;2023-10-19T08:13:52;10.95;;;3.28;;
18104;SDS011;9179;50.968;3.134;2023-10-19T08:16:21;5.88;;;2.72;;
18104;SDS011;9179;50.968;3.134;2023-10-19T08:18:49;8.55;;;3.75;;
18104;SDS011;9179;50.968;3.134;2023-10-19T08:21:17;6.07;;;2.90;;
18104;SDS011;9179;50.968;3.134;2023-10-19T08:23:46;6.53;;;2.50;;
18104;SDS011;9179;50.968;3.134;2023-10-19T08:26:13;7.43;;;3.28;;
18104;SDS011;9179;50.968;3.134;2023-10-19T08:28:41;4.07;;;2.58;;
18104;SDS011;9179;50.968;3.134;2023-10-19T08:31:08;9.18;;;2.63;;
18104;SDS011;9179;50.968;3.134;2023-10-19T08:33:36;9.95;;;3.10;;
18104;SDS011;9179;50.968;3.134;2023-10-19T08:36:06;10.07;;;3.10;;
18104;SDS011;9179;50.968;3.134;2023-10-19T08:38:42;5.35;;;2.85;;
18104;SDS011;9179;50.968;3.134;2023-10-19T08:41:09;5.47;;;2.95;;
18104;SDS011;9179;50.968;3.134;2023-10-19T08:43:36;6.95;;;3.25;;
18104;SDS011;9179;50.968;3.134;2023-10-19T08:46:04;10.85;;;3.45;;
18104;SDS011;9179;50.968;3.134;2023-10-19T08:48:33;6.70;;;2.80;;
18104;SDS011;9179;50.968;3.134;2023-10-19T08:51:03;7.65;;;2.90;;
18104;SDS011;9179;50.968;3.134;2023-10-19T08:53:36;7.72;;;2.85;;
18104;SDS011;9179;50.968;3.134;2023-10-19T08:56:05;4.15;;;2.60;;
18104;SDS011;9179;50.968;3.134;2023-10-19T08:58:33;7.88;;;3.00;;
18104;SDS011;9179;50.968;3.134;2023-10-19T09:01:01;4.47;;;2.58;;
18104;SDS011;9179;50.968;3.134;2023-10-19T09:03:32;6.65;;;2.47;;
18104;SDS011;9179;50.968;3.134;2023-10-19T09:06:00;6.25;;;2.35;;
18104;SDS011;9179;50.968;3.134;2023-10-19T09:08:29;8.10;;;3.85;;
18104;SDS011;9179;50.968;3.134;2023-10-19T09:11:05;8.00;;;3.38;;
18104;SDS011;9179;50.968;3.134;2023-10-19T09:13:42;8.27;;;3.80;;
18104;SDS011;9179;50.968;3.134;2023-10-19T09:16:12;8.63;;;3.28;;
18104;SDS011;9179;50.968;3.134;2023-10-19T09:18:40;5.80;;;3.05;;
18104;SDS011;9179;50.968;3.134;2023-10-19T09:21:07;7.82;;;3.00;;
18104;SDS011;9179;50.968;3.134;2023-10-19T09:23:38;4.15;;;2.80;;
18104;SDS011;9179;50.968;3.134;2023-10-19T09:26:07;3.90;;;2.17;;
18104;SDS011;9179;50.968;3.134;2023-10-19T09:28:34;9.63;;;2.97;;
18104;SDS011;9179;50.968;3.134;2023-10-19T09:31:02;3.63;;;2.30;;
18104;SDS011;9179;50.968;3.134;2023-10-19T09:33:30;7.45;;;2.53;;
18104;SDS011;9179;50.968;3.134;2023-10-19T09:35:59;8.43;;;2.50;;
18104;SDS011;9179;50.968;3.134;2023-10-19T09:38:27;6.05;;;2.60;;
18104;SDS011;9179;50.968;3.134;2023-10-19T09:40:55;5.50;;;2.38;;
18104;SDS011;9179;50.968;3.134;2023-10-19T09:43:28;8.88;;;2.40;;
18104;SDS011;9179;50.968;3.134;2023-10-19T09:46:08;5.28;;;2.30;;
18104;SDS011;9179;50.968;3.134;2023-10-19T09:48:39;7.80;;;2.63;;
18104;SDS011;9179;50.968;3.134;2023-10-19T09:51:07;3.33;;;2.13;;
18104;SDS011;9179;50.968;3.134;2023-10-19T09:53:35;9.52;;;2.75;;
18104;SDS011;9179;50.968;3.134;2023-10-19T09:56:06;5.85;;;2.28;;
18104;SDS011;9179;50.968;3.134;2023-10-19T09:58:38;8.77;;;3.35;;
18104;SDS011;9179;50.968;3.134;2023-10-19T10:01:11;5.85;;;3.80;;
18104;SDS011;9179;50.968;3.134;2023-10-19T10:03:41;4.80;;;3.20;;
18104;SDS011;9179;50.968;3.134;2023-10-19T10:06:09;9.95;;;4.13;;
18104;SDS011;9179;50.968;3.134;2023-10-19T10:08:37;9.13;;;3.03;;
18104;SDS011;9179;50.968;3.134;2023-10-19T10:11:17;9.90;;;4.15;;
18104;SDS011;9179;50.968;3.134;2023-10-19T10:13:49;6.65;;;3.33;;
18104;SDS011;9179;50.968;3.134;2023-10-19T10:16:21;7.50;;;3.50;;
18104;SDS011;9179;50.968;3.134;2023-10-19T10:18:50;6.95;;;3.50;;
18104;SDS011;9179;50.968;3.134;2023-10-19T10:21:21;8.18;;;3.15;;
18104;SDS011;9179;50.968;3.134;2023-10-19T10:23:49;6.72;;;4.30;;
18104;SDS011;9179;50.968;3.134;2023-10-19T10:26:21;6.07;;;2.78;;
18104;SDS011;9179;50.968;3.134;2023-10-19T10:31:40;6.97;;;2.70;;
18104;SDS011;9179;50.968;3.134;2023-10-19T10:34:08;5.30;;;2.65;;
18104;SDS011;9179;50.968;3.134;2023-10-19T10:39:25;6.05;;;2.58;;
18104;SDS011;9179;50.968;3.134;2023-10-19T10:41:56;7.30;;;2.70;;
18104;SDS011;9179;50.968;3.134;2023-10-19T10:47:06;6.38;;;2.10;;
18104;SDS011;9179;50.968;3.134;2023-10-19T10:49:35;6.28;;;3.10;;
18104;SDS011;9179;50.968;3.134;2023-10-19T10:52:25;3.78;;;2.28;;
18104;SDS011;9179;50.968;3.134;2023-10-19T10:54:54;4.40;;;2.85;;
18104;SDS011;9179;50.968;3.134;2023-10-19T10:57:22;5.05;;;2.60;;
18104;SDS011;9179;50.968;3.134;2023-10-19T11:00:00;4.35;;;2.25;;
18104;SDS011;9179;50.968;3.134;2023-10-19T11:02:30;3.55;;;2.20;;
18104;SDS011;9179;50.968;3.134;2023-10-19T11:04:57;6.85;;;2.53;;
18104;SDS011;9179;50.968;3.134;2023-10-19T11:07:25;4.13;;;1.83;;
18104;SDS011;9179;50.968;3.134;2023-10-19T11:09:52;3.50;;;1.58;;
18104;SDS011;9179;50.968;3.134;2023-10-19T11:12:19;2.65;;;2.25;;
18104;SDS011;9179;50.968;3.134;2023-10-19T11:14:54;6.25;;;2.25;;
18104;SDS011;9179;50.968;3.134;2023-10-19T11:17:22;4.97;;;2.17;;
18104;SDS011;9179;50.968;3.134;2023-10-19T11:19:55;4.97;;;2.15;;
18104;SDS011;9179;50.968;3.134;2023-10-19T11:22:23;3.63;;;1.98;;
18104;SDS011;9179;50.968;3.134;2023-10-19T11:24:51;3.78;;;2.00;;
18104;SDS011;9179;50.968;3.134;2023-10-19T11:27:22;4.88;;;2.08;;
18104;SDS011;9179;50.968;3.134;2023-10-19T11:29:56;4.18;;;1.90;;
18104;SDS011;9179;50.968;3.134;2023-10-19T11:32:24;7.38;;;2.50;;
18104;SDS011;9179;50.968;3.134;2023-10-19T11:34:52;4.47;;;1.88;;
18104;SDS011;9179;50.968;3.134;2023-10-19T11:37:19;2.50;;;1.77;;
18104;SDS011;9179;50.968;3.134;2023-10-19T11:39:46;4.20;;;1.70;;
18104;SDS011;9179;50.968;3.134;2023-10-19T11:42:14;3.47;;;1.90;;
18104;SDS011;9179;50.968;3.134;2023-10-19T11:44:43;8.77;;;2.03;;
18104;SDS011;9179;50.968;3.134;2023-10-19T11:47:11;4.38;;;2.20;;
18104;SDS011;9179;50.968;3.134;2023-10-19T11:49:39;3.75;;;1.60;;
18104;SDS011;9179;50.968;3.134;2023-10-19T11:52:06;5.15;;;2.53;;
18104;SDS011;9179;50.968;3.134;2023-10-19T11:54:33;3.13;;;1.63;;
18104;SDS011;9179;50.968;3.134;2023-10-19T11:57:00;4.55;;;2.67;;
18104;SDS011;9179;50.968;3.134;2023-10-19T11:59:28;4.95;;;2.17;;
18104;SDS011;9179;50.968;3.134;2023-10-19T12:01:54;5.95;;;2.45;;
18104;SDS011;9179;50.968;3.134;2023-10-19T12:04:25;5.10;;;2.00;;
18104;SDS011;9179;50.968;3.134;2023-10-19T12:06:52;4.25;;;2.35;;
18104;SDS011;9179;50.968;3.134;2023-10-19T12:09:20;2.80;;;1.80;;
18104;SDS011;9179;50.968;3.134;2023-10-19T12:11:49;4.03;;;1.75;;
18104;SDS011;9179;50.968;3.134;2023-10-19T12:14:18;4.53;;;2.30;;
18104;SDS011;9179;50.968;3.134;2023-10-19T12:16:46;2.45;;;2.10;;
18104;SDS011;9179;50.968;3.134;2023-10-19T12:19:13;4.32;;;2.88;;
18104;SDS011;9179;50.968;3.134;2023-10-19T12:21:43;6.80;;;2.60;;
18104;SDS011;9179;50.968;3.134;2023-10-19T12:24:10;5.43;;;2.33;;
18104;SDS011;9179;50.968;3.134;2023-10-19T12:26:37;3.92;;;2.67;;
18104;SDS011;9179;50.968;3.134;2023-10-19T12:29:04;5.43;;;2.15;;
18104;SDS011;9179;50.968;3.134;2023-10-19T12:31:35;3.47;;;1.90;;
18104;SDS011;9179;50.968;3.134;2023-10-19T12:34:04;6.85;;;2.22;;
18104;SDS011;9179;50.968;3.134;2023-10-19T12:36:32;3.17;;;2.40;;
18104;SDS011;9179;50.968;3.134;2023-10-19T12:39:01;3.70;;;2.22;;
18104;SDS011;9179;50.968;3.134;2023-10-19T12:41:30;2.75;;;1.88;;
18104;SDS011;9179;50.968;3.134;2023-10-19T12:43:58;6.90;;;1.75;;
18104;SDS011;9179;50.968;3.134;2023-10-19T12:46:27;1.55;;;1.30;;
18104;SDS011;9179;50.968;3.134;2023-10-19T12:48:54;2.70;;;1.95;;
18104;SDS011;9179;50.968;3.134;2023-10-19T12:51:23;3.03;;;1.90;;
18104;SDS011;9179;50.968;3.134;2023-10-19T12:53:51;6.72;;;2.03;;
18104;SDS011;9179;50.968;3.134;2023-10-19T12:56:20;2.83;;;1.73;;
18104;SDS011;9179;50.968;3.134;2023-10-19T12:58:49;4.68;;;1.80;;
18104;SDS011;9179;50.968;3.134;2023-10-19T13:01:16;4.65;;;1.83;;
18104;SDS011;9179;50.968;3.134;2023-10-19T13:03:44;6.25;;;2.15;;
18104;SDS011;9179;50.968;3.134;2023-10-19T13:06:12;2.55;;;2.20;;
18104;SDS011;9179;50.968;3.134;2023-10-19T13:08:39;4.57;;;2.03;;
18104;SDS011;9179;50.968;3.134;2023-10-19T13:11:07;2.60;;;2.35;;
18104;SDS011;9179;50.968;3.134;2023-10-19T13:13:36;3.78;;;1.88;;
18104;SDS011;9179;50.968;3.134;2023-10-19T13:16:04;3.75;;;1.80;;
18104;SDS011;9179;50.968;3.134;2023-10-19T13:18:34;3.13;;;2.00;;
18104;SDS011;9179;50.968;3.134;2023-10-19T13:21:01;4.30;;;2.85;;
18104;SDS011;9179;50.968;3.134;2023-10-19T13:23:29;3.13;;;1.98;;
18104;SDS011;9179;50.968;3.134;2023-10-19T13:25:58;3.92;;;2.30;;
18104;SDS011;9179;50.968;3.134;2023-10-19T13:28:33;3.38;;;1.98;;
18104;SDS011;9179;50.968;3.134;2023-10-19T13:31:04;13.15;;;3.30;;
18104;SDS011;9179;50.968;3.134;2023-10-19T13:33:34;3.58;;;2.47;;
18104;SDS011;9179;50.968;3.134;2023-10-19T13:36:01;3.05;;;2.25;;
18104;SDS011;9179;50.968;3.134;2023-10-19T13:38:30;5.25;;;2.58;;
18104;SDS011;9179;50.968;3.134;2023-10-19T13:40:57;4.07;;;2.90;;
18104;SDS011;9179;50.968;3.134;2023-10-19T13:43:24;3.83;;;2.20;;
18104;SDS011;9179;50.968;3.134;2023-10-19T13:45:51;2.65;;;1.90;;
18104;SDS011;9179;50.968;3.134;2023-10-19T13:48:20;2.97;;;1.50;;
18104;SDS011;9179;50.968;3.134;2023-10-19T13:50:48;3.13;;;2.00;;
18104;SDS011;9179;50.968;3.134;2023-10-19T13:53:17;2.75;;;2.00;;
18104;SDS011;9179;50.968;3.134;2023-10-19T13:55:44;3.10;;;1.63;;
18104;SDS011;9179;50.968;3.134;2023-10-19T13:58:11;1.83;;;1.67;;
18104;SDS011;9179;50.968;3.134;2023-10-19T14:00:40;2.45;;;1.45;;
18104;SDS011;9179;50.968;3.134;2023-10-19T14:03:08;2.20;;;1.50;;
18104;SDS011;9179;50.968;3.134;2023-10-19T14:05:39;2.92;;;1.65;;
18104;SDS011;9179;50.968;3.134;2023-10-19T14:08:08;5.13;;;2.08;;
18104;SDS011;9179;50.968;3.134;2023-10-19T14:10:36;2.63;;;1.70;;
18104;SDS011;9179;50.968;3.134;2023-10-19T14:13:04;2.78;;;1.50;;
18104;SDS011;9179;50.968;3.134;2023-10-19T14:15:31;3.83;;;1.80;;
18104;SDS011;9179;50.968;3.134;2023-10-19T14:17:59;2.30;;;1.40;;
18104;SDS011;9179;50.968;3.134;2023-10-19T14:20:28;2.75;;;2.20;;
18104;SDS011;9179;50.968;3.134;2023-10-19T14:22:57;3.97;;;1.67;;
18104;SDS011;9179;50.968;3.134;2023-10-19T14:25:24;3.30;;;1.65;;
18104;SDS011;9179;50.968;3.134;2023-10-19T14:27:52;2.03;;;1.60;;
18104;SDS011;9179;50.968;3.134;2023-10-19T14:30:23;5.18;;;1.80;;
18104;SDS011;9179;50.968;3.134;2023-10-19T14:32:50;3.17;;;1.38;;
18104;SDS011;9179;50.968;3.134;2023-10-19T14:35:18;3.13;;;1.42;;
18104;SDS011;9179;50.968;3.134;2023-10-19T14:37:47;2.42;;;1.60;;
18104;SDS011;9179;50.968;3.134;2023-10-19T14:40:16;2.15;;;1.48;;
18104;SDS011;9179;50.968;3.134;2023-10-19T14:42:46;4.00;;;1.80;;
18104;SDS011;9179;50.968;3.134;2023-10-19T14:45:16;2.60;;;1.50;;
18104;SDS011;9179;50.968;3.134;2023-10-19T14:47:46;2.97;;;1.60;;
18104;SDS011;9179;50.968;3.134;2023-10-19T14:50:13;2.97;;;2.25;;
18104;SDS011;9179;50.968;3.134;2023-10-19T14:52:43;4.13;;;1.50;;
18104;SDS011;9179;50.968;3.134;2023-10-19T14:55:12;2.58;;;1.80;;
18104;SDS011;9179;50.968;3.134;2023-10-19T14:57:42;2.55;;;1.35;;
18104;SDS011;9179;50.968;3.134;2023-10-19T15:00:14;1.90;;;1.45;;
18104;SDS011;9179;50.968;3.134;2023-10-19T15:02:47;3.35;;;1.67;;
18104;SDS011;9179;50.968;3.134;2023-10-19T15:05:15;4.72;;;2.58;;
18104;SDS011;9179;50.968;3.134;2023-10-19T15:07:43;4.30;;;1.80;;
18104;SDS011;9179;50.968;3.134;2023-10-19T15:10:11;2.65;;;1.35;;
18104;SDS011;9179;50.968;3.134;2023-10-19T15:12:38;2.90;;;1.65;;
18104;SDS011;9179;50.968;3.134;2023-10-19T15:15:07;3.35;;;1.80;;
18104;SDS011;9179;50.968;3.134;2023-10-19T15:17:36;2.05;;;1.88;;
18104;SDS011;9179;50.968;3.134;2023-10-19T15:20:04;1.67;;;1.40;;